Saint Vincent, MN

3:44 PM CST on December 27, 2014 (GMT -0600)
Cavalier | Change Station
CLOSE
Current Station
Airport
Location: Cavalier,
Elevation: 892 ft
Nearby Weather Stations

Elev 892 ft 48.78 °N, 97.63 °W | Updated 9 minutes ago

Mostly Cloudy
Mostly Cloudy
19 °F
Feels Like 13 °F
N
5
Wind Variable Wind from NNW

Today
High -- | Low -- °F
--% Chance of Precip.
Yesterday
High -- | Low -- °F
Precip. -- in
8:21 AM 4:37 PM
Waxing Crescent, 40% visible
Pressure 30.02 in
Visibility 1.2 miles
Clouds Scattered Clouds 100 ft
Mostly Cloudy 1000 ft
Overcast 1700 ft
Windchill 13 °F
Dew Point 16 °F
Humidity 86%
Rainfall 0.02 in
Snow Depth Not available.
UV 0 out of 12
Pollen .10 out of 12
Air Quality Not available.
Flu Activity Not available.
METAR K2C8 272135Z AUTO 34004KT 1 1/4SM -SN SCT001 BKN010 OVC017 M07/M09 A3002 RMK AO2 P0002

More Conditions Fewer Conditions

Pressure 30.02 in
Visibility 1.2 miles
Clouds Scattered Clouds 100 ft
Mostly Cloudy 1000 ft
Overcast 1700 ft
Windchill 13 °F
Dew Point 16 °F
Humidity 86%
Rainfall 0.02 in
Snow Depth Not available.
UV 0 out of 12
Pollen .10 out of 12
Air Quality Not available.
Flu Activity Not available.
METAR K2C8 272135Z AUTO 34004KT 1 1/4SM -SN SCT001 BKN010 OVC017 M07/M09 A3002 RMK AO2 P0002

More Conditions Fewer Conditions

10-Day Weather Forecast

Almanac

Astronomy

Dec. 27, 2014 Rise Set
Actual Time
Civil Twilight
Nautical Twilight
Astronomical Twilight
Moon
Length of Visible Light
Length of Day
Tomorrow will be .
, % of the Moon is Illuminated

Today's Extremes

State Highs State Lows

Community

WunderPhotos

Upload Photos

1,781,073 photos uploaded!

WunderBlogs® & News

Nearby

Air Quality

  Air Quality AQ Index Pollutant
Not available.

Snow Depth

Station Depth Elevation

Earthquake Activity

City Distance Mag. Time & Date
Minimum magnitude displayed is 2.5.

Coastal Water Temperatures

Place Temperature

Nearby Weather Stations